sensor_id;sensor_type;location;lat;lon;timestamp;P1;durP1;ratioP1;P2;durP2;ratioP2
14040;SDS011;7095;51.388;6.196;2024-01-11T00:01:47;52.70;;;25.93;;
14040;SDS011;7095;51.388;6.196;2024-01-11T00:04:16;54.30;;;23.63;;
14040;SDS011;7095;51.388;6.196;2024-01-11T00:06:49;47.77;;;23.83;;
14040;SDS011;7095;51.388;6.196;2024-01-11T00:09:18;55.47;;;24.73;;
14040;SDS011;7095;51.388;6.196;2024-01-11T00:11:51;49.57;;;24.50;;
14040;SDS011;7095;51.388;6.196;2024-01-11T00:14:20;52.00;;;23.80;;
14040;SDS011;7095;51.388;6.196;2024-01-11T00:16:49;51.77;;;24.03;;
14040;SDS011;7095;51.388;6.196;2024-01-11T00:19:17;57.53;;;26.13;;
14040;SDS011;7095;51.388;6.196;2024-01-11T00:21:48;50.00;;;24.90;;
14040;SDS011;7095;51.388;6.196;2024-01-11T00:24:16;49.87;;;24.43;;
14040;SDS011;7095;51.388;6.196;2024-01-11T00:26:45;52.17;;;25.00;;
14040;SDS011;7095;51.388;6.196;2024-01-11T00:29:14;50.07;;;23.60;;
14040;SDS011;7095;51.388;6.196;2024-01-11T00:31:43;61.60;;;26.37;;
14040;SDS011;7095;51.388;6.196;2024-01-11T00:34:11;54.13;;;25.27;;
14040;SDS011;7095;51.388;6.196;2024-01-11T00:36:40;53.83;;;25.83;;
14040;SDS011;7095;51.388;6.196;2024-01-11T00:39:10;50.03;;;24.93;;
14040;SDS011;7095;51.388;6.196;2024-01-11T00:41:39;50.67;;;23.40;;
14040;SDS011;7095;51.388;6.196;2024-01-11T00:44:08;62.73;;;28.47;;
14040;SDS011;7095;51.388;6.196;2024-01-11T00:46:37;56.13;;;24.40;;
14040;SDS011;7095;51.388;6.196;2024-01-11T00:49:06;51.83;;;26.73;;
14040;SDS011;7095;51.388;6.196;2024-01-11T00:51:35;55.87;;;25.07;;
14040;SDS011;7095;51.388;6.196;2024-01-11T00:54:03;47.30;;;24.43;;
14040;SDS011;7095;51.388;6.196;2024-01-11T00:56:33;52.20;;;23.67;;
14040;SDS011;7095;51.388;6.196;2024-01-11T00:59:03;52.77;;;24.00;;
14040;SDS011;7095;51.388;6.196;2024-01-11T01:01:32;57.30;;;25.13;;
14040;SDS011;7095;51.388;6.196;2024-01-11T01:04:01;44.03;;;23.67;;
14040;SDS011;7095;51.388;6.196;2024-01-11T01:06:29;45.40;;;23.03;;
14040;SDS011;7095;51.388;6.196;2024-01-11T01:08:58;53.57;;;26.07;;
14040;SDS011;7095;51.388;6.196;2024-01-11T01:11:26;50.53;;;24.23;;
14040;SDS011;7095;51.388;6.196;2024-01-11T01:13:57;56.17;;;26.40;;
14040;SDS011;7095;51.388;6.196;2024-01-11T01:16:27;50.27;;;23.67;;
14040;SDS011;7095;51.388;6.196;2024-01-11T01:18:55;46.80;;;24.00;;
14040;SDS011;7095;51.388;6.196;2024-01-11T01:21:27;53.23;;;26.17;;
14040;SDS011;7095;51.388;6.196;2024-01-11T01:23:56;46.87;;;24.07;;
14040;SDS011;7095;51.388;6.196;2024-01-11T01:26:24;52.83;;;25.00;;
14040;SDS011;7095;51.388;6.196;2024-01-11T01:28:53;57.93;;;25.57;;
14040;SDS011;7095;51.388;6.196;2024-01-11T01:31:23;55.17;;;24.83;;
14040;SDS011;7095;51.388;6.196;2024-01-11T01:33:52;49.80;;;23.17;;
14040;SDS011;7095;51.388;6.196;2024-01-11T01:36:21;49.50;;;24.90;;
14040;SDS011;7095;51.388;6.196;2024-01-11T01:38:49;49.37;;;25.90;;
14040;SDS011;7095;51.388;6.196;2024-01-11T01:41:18;56.63;;;24.63;;
14040;SDS011;7095;51.388;6.196;2024-01-11T01:43:46;48.50;;;23.47;;
14040;SDS011;7095;51.388;6.196;2024-01-11T01:46:17;57.17;;;26.13;;
14040;SDS011;7095;51.388;6.196;2024-01-11T01:48:52;51.73;;;26.17;;
14040;SDS011;7095;51.388;6.196;2024-01-11T01:51:24;52.70;;;26.03;;
14040;SDS011;7095;51.388;6.196;2024-01-11T01:53:56;61.00;;;27.23;;
14040;SDS011;7095;51.388;6.196;2024-01-11T01:56:26;47.23;;;24.57;;
14040;SDS011;7095;51.388;6.196;2024-01-11T01:58:55;54.63;;;25.93;;
14040;SDS011;7095;51.388;6.196;2024-01-11T02:01:24;50.47;;;25.83;;
14040;SDS011;7095;51.388;6.196;2024-01-11T02:03:55;61.13;;;27.43;;
14040;SDS011;7095;51.388;6.196;2024-01-11T02:06:25;67.13;;;27.87;;
14040;SDS011;7095;51.388;6.196;2024-01-11T02:08:59;55.47;;;25.87;;
14040;SDS011;7095;51.388;6.196;2024-01-11T02:11:30;57.17;;;27.37;;
14040;SDS011;7095;51.388;6.196;2024-01-11T02:13:59;56.73;;;26.80;;
14040;SDS011;7095;51.388;6.196;2024-01-11T02:16:28;56.93;;;25.87;;
14040;SDS011;7095;51.388;6.196;2024-01-11T02:18:58;57.83;;;26.73;;
14040;SDS011;7095;51.388;6.196;2024-01-11T02:21:28;48.13;;;24.77;;
14040;SDS011;7095;51.388;6.196;2024-01-11T02:24:04;57.70;;;25.53;;
14040;SDS011;7095;51.388;6.196;2024-01-11T02:26:34;53.30;;;26.07;;
14040;SDS011;7095;51.388;6.196;2024-01-11T02:29:03;51.77;;;25.07;;
14040;SDS011;7095;51.388;6.196;2024-01-11T02:31:31;59.20;;;26.43;;
14040;SDS011;7095;51.388;6.196;2024-01-11T02:34:00;62.63;;;26.57;;
14040;SDS011;7095;51.388;6.196;2024-01-11T02:36:29;55.00;;;27.30;;
14040;SDS011;7095;51.388;6.196;2024-01-11T02:38:57;52.63;;;25.13;;
14040;SDS011;7095;51.388;6.196;2024-01-11T02:41:28;52.43;;;24.77;;
14040;SDS011;7095;51.388;6.196;2024-01-11T02:43:57;51.50;;;24.60;;
14040;SDS011;7095;51.388;6.196;2024-01-11T02:46:26;55.03;;;26.53;;
14040;SDS011;7095;51.388;6.196;2024-01-11T02:48:55;59.67;;;25.83;;
14040;SDS011;7095;51.388;6.196;2024-01-11T02:51:25;49.40;;;25.30;;
14040;SDS011;7095;51.388;6.196;2024-01-11T02:53:53;57.33;;;25.70;;
14040;SDS011;7095;51.388;6.196;2024-01-11T02:56:22;53.47;;;26.03;;
14040;SDS011;7095;51.388;6.196;2024-01-11T02:58:53;54.50;;;25.77;;
14040;SDS011;7095;51.388;6.196;2024-01-11T03:01:21;58.23;;;28.00;;
14040;SDS011;7095;51.388;6.196;2024-01-11T03:03:50;54.70;;;25.87;;
14040;SDS011;7095;51.388;6.196;2024-01-11T03:06:20;55.37;;;25.73;;
14040;SDS011;7095;51.388;6.196;2024-01-11T03:08:49;55.10;;;27.30;;
14040;SDS011;7095;51.388;6.196;2024-01-11T03:11:18;53.93;;;25.00;;
14040;SDS011;7095;51.388;6.196;2024-01-11T03:13:46;58.00;;;28.00;;
14040;SDS011;7095;51.388;6.196;2024-01-11T03:16:17;52.63;;;25.97;;
14040;SDS011;7095;51.388;6.196;2024-01-11T03:18:47;59.07;;;28.00;;
14040;SDS011;7095;51.388;6.196;2024-01-11T03:21:16;61.33;;;28.33;;
14040;SDS011;7095;51.388;6.196;2024-01-11T03:23:45;60.77;;;27.63;;
14040;SDS011;7095;51.388;6.196;2024-01-11T03:26:13;50.47;;;25.80;;
14040;SDS011;7095;51.388;6.196;2024-01-11T03:28:42;55.60;;;26.30;;
14040;SDS011;7095;51.388;6.196;2024-01-11T03:31:11;62.63;;;28.20;;
14040;SDS011;7095;51.388;6.196;2024-01-11T03:33:42;58.70;;;28.60;;
14040;SDS011;7095;51.388;6.196;2024-01-11T03:36:11;57.53;;;26.93;;
14040;SDS011;7095;51.388;6.196;2024-01-11T03:38:40;58.87;;;26.33;;
14040;SDS011;7095;51.388;6.196;2024-01-11T03:41:09;58.67;;;27.47;;
14040;SDS011;7095;51.388;6.196;2024-01-11T03:43:38;58.03;;;27.00;;
14040;SDS011;7095;51.388;6.196;2024-01-11T03:46:07;62.27;;;27.80;;
14040;SDS011;7095;51.388;6.196;2024-01-11T03:48:35;57.37;;;27.07;;
14040;SDS011;7095;51.388;6.196;2024-01-11T03:51:06;55.67;;;28.67;;
14040;SDS011;7095;51.388;6.196;2024-01-11T03:53:35;55.93;;;27.27;;
14040;SDS011;7095;51.388;6.196;2024-01-11T03:56:05;57.57;;;27.50;;
14040;SDS011;7095;51.388;6.196;2024-01-11T03:58:35;52.00;;;26.40;;
14040;SDS011;7095;51.388;6.196;2024-01-11T04:01:06;55.03;;;25.97;;
14040;SDS011;7095;51.388;6.196;2024-01-11T04:03:37;58.60;;;26.80;;
14040;SDS011;7095;51.388;6.196;2024-01-11T04:06:08;56.40;;;27.30;;
14040;SDS011;7095;51.388;6.196;2024-01-11T04:08:37;47.00;;;24.80;;
14040;SDS011;7095;51.388;6.196;2024-01-11T04:11:05;52.70;;;27.03;;
14040;SDS011;7095;51.388;6.196;2024-01-11T04:13:34;59.40;;;27.13;;
14040;SDS011;7095;51.388;6.196;2024-01-11T04:16:04;57.60;;;30.07;;
14040;SDS011;7095;51.388;6.196;2024-01-11T04:18:33;54.60;;;29.60;;
14040;SDS011;7095;51.388;6.196;2024-01-11T04:21:02;67.10;;;28.67;;
14040;SDS011;7095;51.388;6.196;2024-01-11T04:23:32;63.17;;;29.67;;
14040;SDS011;7095;51.388;6.196;2024-01-11T04:26:01;67.73;;;30.13;;
14040;SDS011;7095;51.388;6.196;2024-01-11T04:28:30;60.67;;;28.80;;
14040;SDS011;7095;51.388;6.196;2024-01-11T04:30:59;59.10;;;30.90;;
14040;SDS011;7095;51.388;6.196;2024-01-11T04:33:28;71.23;;;32.57;;
14040;SDS011;7095;51.388;6.196;2024-01-11T04:35:57;61.57;;;31.40;;
14040;SDS011;7095;51.388;6.196;2024-01-11T04:38:26;60.53;;;29.33;;
14040;SDS011;7095;51.388;6.196;2024-01-11T04:40:56;65.70;;;29.17;;
14040;SDS011;7095;51.388;6.196;2024-01-11T04:43:25;68.13;;;32.33;;
14040;SDS011;7095;51.388;6.196;2024-01-11T04:45:54;62.10;;;29.63;;
14040;SDS011;7095;51.388;6.196;2024-01-11T04:48:23;68.23;;;29.43;;
14040;SDS011;7095;51.388;6.196;2024-01-11T04:50:51;57.40;;;29.00;;
14040;SDS011;7095;51.388;6.196;2024-01-11T04:53:20;60.93;;;30.10;;
14040;SDS011;7095;51.388;6.196;2024-01-11T04:55:49;62.93;;;30.10;;
14040;SDS011;7095;51.388;6.196;2024-01-11T04:58:19;71.30;;;32.23;;
14040;SDS011;7095;51.388;6.196;2024-01-11T05:00:48;61.37;;;29.73;;
14040;SDS011;7095;51.388;6.196;2024-01-11T05:03:17;65.97;;;30.23;;
14040;SDS011;7095;51.388;6.196;2024-01-11T05:05:46;68.83;;;29.90;;
14040;SDS011;7095;51.388;6.196;2024-01-11T05:08:15;60.30;;;30.37;;
14040;SDS011;7095;51.388;6.196;2024-01-11T05:10:44;60.97;;;29.47;;
14040;SDS011;7095;51.388;6.196;2024-01-11T05:13:13;59.33;;;29.70;;
14040;SDS011;7095;51.388;6.196;2024-01-11T05:15:43;61.77;;;28.70;;
14040;SDS011;7095;51.388;6.196;2024-01-11T05:18:13;62.03;;;28.20;;
14040;SDS011;7095;51.388;6.196;2024-01-11T05:20:42;62.57;;;28.77;;
14040;SDS011;7095;51.388;6.196;2024-01-11T05:23:11;63.53;;;29.53;;
14040;SDS011;7095;51.388;6.196;2024-01-11T05:25:40;55.93;;;28.03;;
14040;SDS011;7095;51.388;6.196;2024-01-11T05:28:08;67.47;;;30.07;;
14040;SDS011;7095;51.388;6.196;2024-01-11T05:30:37;63.83;;;27.00;;
14040;SDS011;7095;51.388;6.196;2024-01-11T05:33:08;60.20;;;28.97;;
14040;SDS011;7095;51.388;6.196;2024-01-11T05:35:37;64.20;;;28.60;;
14040;SDS011;7095;51.388;6.196;2024-01-11T05:38:05;64.43;;;29.93;;
14040;SDS011;7095;51.388;6.196;2024-01-11T05:40:34;57.80;;;27.97;;
14040;SDS011;7095;51.388;6.196;2024-01-11T05:43:03;61.73;;;30.00;;
14040;SDS011;7095;51.388;6.196;2024-01-11T05:45:32;57.90;;;27.30;;
14040;SDS011;7095;51.388;6.196;2024-01-11T05:48:15;59.07;;;28.83;;
14040;SDS011;7095;51.388;6.196;2024-01-11T05:50:44;58.33;;;27.77;;
14040;SDS011;7095;51.388;6.196;2024-01-11T05:53:13;54.77;;;28.23;;
14040;SDS011;7095;51.388;6.196;2024-01-11T05:55:41;60.63;;;29.47;;
14040;SDS011;7095;51.388;6.196;2024-01-11T05:58:10;62.33;;;28.50;;
14040;SDS011;7095;51.388;6.196;2024-01-11T06:00:39;58.67;;;29.00;;
14040;SDS011;7095;51.388;6.196;2024-01-11T06:03:09;67.77;;;30.33;;
14040;SDS011;7095;51.388;6.196;2024-01-11T06:05:41;50.60;;;26.37;;
14040;SDS011;7095;51.388;6.196;2024-01-11T06:08:10;58.17;;;28.77;;
14040;SDS011;7095;51.388;6.196;2024-01-11T06:10:39;59.97;;;29.73;;
14040;SDS011;7095;51.388;6.196;2024-01-11T06:13:08;60.97;;;29.17;;
14040;SDS011;7095;51.388;6.196;2024-01-11T06:15:38;60.00;;;27.10;;
14040;SDS011;7095;51.388;6.196;2024-01-11T06:18:06;62.60;;;28.83;;
14040;SDS011;7095;51.388;6.196;2024-01-11T06:20:35;62.30;;;28.03;;
14040;SDS011;7095;51.388;6.196;2024-01-11T06:23:05;61.17;;;28.07;;
14040;SDS011;7095;51.388;6.196;2024-01-11T06:25:34;69.83;;;29.43;;
14040;SDS011;7095;51.388;6.196;2024-01-11T06:28:03;64.17;;;28.13;;
14040;SDS011;7095;51.388;6.196;2024-01-11T06:30:33;59.33;;;27.87;;
14040;SDS011;7095;51.388;6.196;2024-01-11T06:33:02;59.40;;;27.83;;
14040;SDS011;7095;51.388;6.196;2024-01-11T06:35:31;54.40;;;27.67;;
14040;SDS011;7095;51.388;6.196;2024-01-11T06:38:00;58.13;;;29.77;;
14040;SDS011;7095;51.388;6.196;2024-01-11T06:40:30;66.00;;;28.10;;
14040;SDS011;7095;51.388;6.196;2024-01-11T06:42:58;64.57;;;27.07;;
14040;SDS011;7095;51.388;6.196;2024-01-11T06:45:27;59.47;;;27.83;;
14040;SDS011;7095;51.388;6.196;2024-01-11T06:47:56;63.80;;;27.93;;
14040;SDS011;7095;51.388;6.196;2024-01-11T06:50:25;61.43;;;28.23;;
14040;SDS011;7095;51.388;6.196;2024-01-11T06:52:53;57.57;;;26.83;;
14040;SDS011;7095;51.388;6.196;2024-01-11T06:55:22;51.33;;;25.57;;
14040;SDS011;7095;51.388;6.196;2024-01-11T06:57:52;54.87;;;27.30;;
14040;SDS011;7095;51.388;6.196;2024-01-11T07:00:21;61.40;;;28.50;;
14040;SDS011;7095;51.388;6.196;2024-01-11T07:02:50;59.90;;;27.87;;
14040;SDS011;7095;51.388;6.196;2024-01-11T07:05:20;56.70;;;27.27;;
14040;SDS011;7095;51.388;6.196;2024-01-11T07:07:49;60.10;;;28.53;;
14040;SDS011;7095;51.388;6.196;2024-01-11T07:10:18;64.37;;;29.47;;
14040;SDS011;7095;51.388;6.196;2024-01-11T07:12:47;59.60;;;28.37;;
14040;SDS011;7095;51.388;6.196;2024-01-11T07:15:17;64.73;;;29.27;;
14040;SDS011;7095;51.388;6.196;2024-01-11T07:17:46;57.27;;;28.47;;
14040;SDS011;7095;51.388;6.196;2024-01-11T07:20:15;67.40;;;30.50;;
14040;SDS011;7095;51.388;6.196;2024-01-11T07:22:46;67.43;;;28.90;;
14040;SDS011;7095;51.388;6.196;2024-01-11T07:25:14;63.97;;;29.63;;
14040;SDS011;7095;51.388;6.196;2024-01-11T07:27:43;56.50;;;27.43;;
14040;SDS011;7095;51.388;6.196;2024-01-11T07:30:13;64.53;;;29.70;;
14040;SDS011;7095;51.388;6.196;2024-01-11T07:32:43;58.70;;;27.40;;
14040;SDS011;7095;51.388;6.196;2024-01-11T07:35:13;64.57;;;27.90;;
14040;SDS011;7095;51.388;6.196;2024-01-11T07:37:45;59.13;;;28.50;;
14040;SDS011;7095;51.388;6.196;2024-01-11T07:40:14;67.10;;;28.60;;
14040;SDS011;7095;51.388;6.196;2024-01-11T07:42:43;61.93;;;30.37;;
14040;SDS011;7095;51.388;6.196;2024-01-11T07:45:12;63.83;;;29.17;;
14040;SDS011;7095;51.388;6.196;2024-01-11T07:47:42;57.23;;;29.20;;
14040;SDS011;7095;51.388;6.196;2024-01-11T07:50:12;67.77;;;30.20;;
14040;SDS011;7095;51.388;6.196;2024-01-11T07:52:42;61.87;;;29.30;;
14040;SDS011;7095;51.388;6.196;2024-01-11T07:55:10;62.20;;;30.43;;
14040;SDS011;7095;51.388;6.196;2024-01-11T07:57:40;68.13;;;28.90;;
14040;SDS011;7095;51.388;6.196;2024-01-11T08:00:09;62.40;;;29.03;;
14040;SDS011;7095;51.388;6.196;2024-01-11T08:02:41;62.97;;;29.23;;
14040;SDS011;7095;51.388;6.196;2024-01-11T08:05:11;59.33;;;27.70;;
14040;SDS011;7095;51.388;6.196;2024-01-11T08:07:39;55.97;;;28.33;;
14040;SDS011;7095;51.388;6.196;2024-01-11T08:10:09;59.60;;;28.70;;
14040;SDS011;7095;51.388;6.196;2024-01-11T08:12:38;55.87;;;27.10;;
14040;SDS011;7095;51.388;6.196;2024-01-11T08:15:07;62.47;;;29.53;;
14040;SDS011;7095;51.388;6.196;2024-01-11T08:17:43;64.50;;;29.60;;
14040;SDS011;7095;51.388;6.196;2024-01-11T08:20:16;61.87;;;31.13;;
14040;SDS011;7095;51.388;6.196;2024-01-11T08:22:46;58.67;;;28.13;;
14040;SDS011;7095;51.388;6.196;2024-01-11T08:25:15;62.33;;;28.33;;
14040;SDS011;7095;51.388;6.196;2024-01-11T08:27:44;57.33;;;26.43;;
14040;SDS011;7095;51.388;6.196;2024-01-11T08:30:13;55.70;;;26.97;;
14040;SDS011;7095;51.388;6.196;2024-01-11T08:32:43;57.50;;;27.43;;
14040;SDS011;7095;51.388;6.196;2024-01-11T08:35:12;57.73;;;27.30;;
14040;SDS011;7095;51.388;6.196;2024-01-11T08:37:44;57.33;;;27.83;;
14040;SDS011;7095;51.388;6.196;2024-01-11T08:40:13;62.57;;;28.07;;
14040;SDS011;7095;51.388;6.196;2024-01-11T08:42:42;51.83;;;26.47;;
14040;SDS011;7095;51.388;6.196;2024-01-11T08:45:11;51.67;;;24.37;;
14040;SDS011;7095;51.388;6.196;2024-01-11T08:47:45;51.00;;;25.07;;
14040;SDS011;7095;51.388;6.196;2024-01-11T08:50:15;60.30;;;27.73;;
14040;SDS011;7095;51.388;6.196;2024-01-11T08:52:51;53.53;;;25.83;;
14040;SDS011;7095;51.388;6.196;2024-01-11T08:55:23;56.57;;;28.87;;
14040;SDS011;7095;51.388;6.196;2024-01-11T08:57:53;57.43;;;26.47;;
14040;SDS011;7095;51.388;6.196;2024-01-11T09:00:21;54.37;;;24.83;;
14040;SDS011;7095;51.388;6.196;2024-01-11T09:02:50;52.10;;;26.27;;
14040;SDS011;7095;51.388;6.196;2024-01-11T09:05:19;51.57;;;26.83;;
14040;SDS011;7095;51.388;6.196;2024-01-11T09:07:48;50.57;;;25.00;;
14040;SDS011;7095;51.388;6.196;2024-01-11T09:10:21;49.30;;;25.17;;
14040;SDS011;7095;51.388;6.196;2024-01-11T09:12:50;48.43;;;26.97;;
14040;SDS011;7095;51.388;6.196;2024-01-11T09:15:19;50.07;;;25.27;;
14040;SDS011;7095;51.388;6.196;2024-01-11T09:17:48;48.00;;;24.07;;
14040;SDS011;7095;51.388;6.196;2024-01-11T09:20:17;54.57;;;26.50;;
14040;SDS011;7095;51.388;6.196;2024-01-11T09:22:46;55.47;;;26.07;;
14040;SDS011;7095;51.388;6.196;2024-01-11T09:25:16;58.53;;;26.27;;
14040;SDS011;7095;51.388;6.196;2024-01-11T09:27:46;51.80;;;25.53;;
14040;SDS011;7095;51.388;6.196;2024-01-11T09:30:16;52.20;;;27.63;;
14040;SDS011;7095;51.388;6.196;2024-01-11T09:32:45;58.30;;;27.20;;
14040;SDS011;7095;51.388;6.196;2024-01-11T09:35:15;55.87;;;26.63;;
14040;SDS011;7095;51.388;6.196;2024-01-11T09:37:44;53.67;;;25.73;;
14040;SDS011;7095;51.388;6.196;2024-01-11T09:40:14;50.13;;;24.90;;
14040;SDS011;7095;51.388;6.196;2024-01-11T09:42:44;53.37;;;26.13;;
14040;SDS011;7095;51.388;6.196;2024-01-11T09:45:14;45.47;;;24.87;;
14040;SDS011;7095;51.388;6.196;2024-01-11T09:47:44;55.07;;;26.33;;
14040;SDS011;7095;51.388;6.196;2024-01-11T09:50:15;50.33;;;25.63;;
14040;SDS011;7095;51.388;6.196;2024-01-11T09:52:46;50.23;;;25.80;;
14040;SDS011;7095;51.388;6.196;2024-01-11T09:55:16;48.77;;;25.77;;
14040;SDS011;7095;51.388;6.196;2024-01-11T09:57:46;47.57;;;25.13;;
14040;SDS011;7095;51.388;6.196;2024-01-11T10:00:18;49.43;;;26.27;;
14040;SDS011;7095;51.388;6.196;2024-01-11T10:02:50;45.07;;;25.27;;
14040;SDS011;7095;51.388;6.196;2024-01-11T10:05:20;56.83;;;27.13;;
14040;SDS011;7095;51.388;6.196;2024-01-11T10:07:49;51.37;;;24.30;;
14040;SDS011;7095;51.388;6.196;2024-01-11T10:10:17;51.40;;;24.80;;
14040;SDS011;7095;51.388;6.196;2024-01-11T10:12:47;45.17;;;25.37;;
14040;SDS011;7095;51.388;6.196;2024-01-11T10:15:18;55.53;;;24.47;;
14040;SDS011;7095;51.388;6.196;2024-01-11T10:17:47;47.87;;;24.17;;
14040;SDS011;7095;51.388;6.196;2024-01-11T10:20:16;55.47;;;25.67;;
14040;SDS011;7095;51.388;6.196;2024-01-11T10:22:51;46.47;;;24.47;;
14040;SDS011;7095;51.388;6.196;2024-01-11T10:25:20;50.30;;;24.43;;
14040;SDS011;7095;51.388;6.196;2024-01-11T10:27:48;47.77;;;24.47;;
14040;SDS011;7095;51.388;6.196;2024-01-11T10:30:19;47.03;;;25.03;;
14040;SDS011;7095;51.388;6.196;2024-01-11T10:32:49;45.77;;;23.93;;
14040;SDS011;7095;51.388;6.196;2024-01-11T10:35:18;47.33;;;24.83;;
14040;SDS011;7095;51.388;6.196;2024-01-11T10:37:49;45.03;;;24.37;;
14040;SDS011;7095;51.388;6.196;2024-01-11T10:40:21;48.77;;;26.60;;
14040;SDS011;7095;51.388;6.196;2024-01-11T10:42:52;53.93;;;25.43;;
14040;SDS011;7095;51.388;6.196;2024-01-11T10:45:26;51.17;;;24.53;;
14040;SDS011;7095;51.388;6.196;2024-01-11T10:47:56;50.73;;;24.83;;
14040;SDS011;7095;51.388;6.196;2024-01-11T10:50:33;46.83;;;24.50;;
14040;SDS011;7095;51.388;6.196;2024-01-11T10:53:08;45.90;;;23.70;;
14040;SDS011;7095;51.388;6.196;2024-01-11T10:55:46;51.63;;;24.77;;
14040;SDS011;7095;51.388;6.196;2024-01-11T10:58:17;46.33;;;23.90;;
14040;SDS011;7095;51.388;6.196;2024-01-11T11:00:50;44.00;;;24.27;;
14040;SDS011;7095;51.388;6.196;2024-01-11T11:03:22;53.00;;;25.13;;
14040;SDS011;7095;51.388;6.196;2024-01-11T11:05:53;41.67;;;24.37;;
14040;SDS011;7095;51.388;6.196;2024-01-11T11:08:24;53.63;;;25.03;;
14040;SDS011;7095;51.388;6.196;2024-01-11T11:10:55;43.73;;;24.20;;
14040;SDS011;7095;51.388;6.196;2024-01-11T11:13:25;48.17;;;23.97;;
14040;SDS011;7095;51.388;6.196;2024-01-11T11:15:56;46.23;;;23.93;;
14040;SDS011;7095;51.388;6.196;2024-01-11T11:18:28;46.73;;;24.77;;
14040;SDS011;7095;51.388;6.196;2024-01-11T11:20:57;40.50;;;23.13;;
14040;SDS011;7095;51.388;6.196;2024-01-11T11:23:26;44.80;;;24.80;;
14040;SDS011;7095;51.388;6.196;2024-01-11T11:25:55;45.10;;;23.67;;
14040;SDS011;7095;51.388;6.196;2024-01-11T11:28:25;44.23;;;24.43;;
14040;SDS011;7095;51.388;6.196;2024-01-11T11:30:56;45.73;;;23.63;;
14040;SDS011;7095;51.388;6.196;2024-01-11T11:33:30;40.83;;;23.33;;
14040;SDS011;7095;51.388;6.196;2024-01-11T11:35:59;43.93;;;23.83;;
14040;SDS011;7095;51.388;6.196;2024-01-11T11:38:32;43.57;;;24.30;;
14040;SDS011;7095;51.388;6.196;2024-01-11T11:41:03;45.00;;;22.67;;
14040;SDS011;7095;51.388;6.196;2024-01-11T11:43:32;41.80;;;22.73;;
14040;SDS011;7095;51.388;6.196;2024-01-11T11:46:04;39.67;;;22.93;;
14040;SDS011;7095;51.388;6.196;2024-01-11T11:48:48;43.17;;;22.53;;
14040;SDS011;7095;51.388;6.196;2024-01-11T11:51:19;45.43;;;22.13;;
14040;SDS011;7095;51.388;6.196;2024-01-11T11:53:52;46.20;;;22.20;;
14040;SDS011;7095;51.388;6.196;2024-01-11T11:56:22;41.20;;;22.50;;
14040;SDS011;7095;51.388;6.196;2024-01-11T11:58:51;40.17;;;21.30;;
14040;SDS011;7095;51.388;6.196;2024-01-11T12:01:23;40.47;;;21.97;;
14040;SDS011;7095;51.388;6.196;2024-01-11T12:03:52;42.03;;;22.60;;
14040;SDS011;7095;51.388;6.196;2024-01-11T12:06:21;39.70;;;22.80;;
14040;SDS011;7095;51.388;6.196;2024-01-11T12:08:54;36.40;;;19.30;;
14040;SDS011;7095;51.388;6.196;2024-01-11T12:11:24;40.73;;;21.20;;
14040;SDS011;7095;51.388;6.196;2024-01-11T12:13:54;39.73;;;21.50;;
14040;SDS011;7095;51.388;6.196;2024-01-11T12:16:26;36.70;;;20.53;;
14040;SDS011;7095;51.388;6.196;2024-01-11T12:18:55;38.00;;;20.30;;
14040;SDS011;7095;51.388;6.196;2024-01-11T12:21:24;34.30;;;19.37;;
14040;SDS011;7095;51.388;6.196;2024-01-11T12:23:54;35.07;;;19.03;;
14040;SDS011;7095;51.388;6.196;2024-01-11T12:26:23;34.00;;;19.07;;
14040;SDS011;7095;51.388;6.196;2024-01-11T12:28:52;38.87;;;20.27;;
14040;SDS011;7095;51.388;6.196;2024-01-11T12:31:21;35.07;;;18.17;;
14040;SDS011;7095;51.388;6.196;2024-01-11T12:33:52;36.40;;;18.23;;
14040;SDS011;7095;51.388;6.196;2024-01-11T12:36:22;33.57;;;18.50;;
14040;SDS011;7095;51.388;6.196;2024-01-11T12:38:52;30.50;;;17.87;;
14040;SDS011;7095;51.388;6.196;2024-01-11T12:41:21;33.37;;;18.10;;
14040;SDS011;7095;51.388;6.196;2024-01-11T12:43:51;38.27;;;18.87;;
14040;SDS011;7095;51.388;6.196;2024-01-11T12:46:21;30.00;;;16.87;;
14040;SDS011;7095;51.388;6.196;2024-01-11T12:48:52;30.60;;;18.60;;
14040;SDS011;7095;51.388;6.196;2024-01-11T12:51:21;33.33;;;18.20;;
14040;SDS011;7095;51.388;6.196;2024-01-11T12:53:51;32.77;;;17.77;;
14040;SDS011;7095;51.388;6.196;2024-01-11T12:56:21;33.53;;;18.27;;
14040;SDS011;7095;51.388;6.196;2024-01-11T12:58:50;30.67;;;18.53;;
14040;SDS011;7095;51.388;6.196;2024-01-11T13:01:19;32.83;;;17.73;;
14040;SDS011;7095;51.388;6.196;2024-01-11T13:03:48;41.03;;;18.67;;
14040;SDS011;7095;51.388;6.196;2024-01-11T13:06:19;35.07;;;17.50;;
14040;SDS011;7095;51.388;6.196;2024-01-11T13:08:48;31.97;;;17.50;;
14040;SDS011;7095;51.388;6.196;2024-01-11T13:11:17;32.93;;;18.93;;
14040;SDS011;7095;51.388;6.196;2024-01-11T13:13:48;31.73;;;17.47;;
14040;SDS011;7095;51.388;6.196;2024-01-11T13:16:17;32.33;;;17.97;;
14040;SDS011;7095;51.388;6.196;2024-01-11T13:18:46;32.83;;;17.40;;
14040;SDS011;7095;51.388;6.196;2024-01-11T13:21:16;33.50;;;18.73;;
14040;SDS011;7095;51.388;6.196;2024-01-11T13:23:48;31.93;;;17.33;;
14040;SDS011;7095;51.388;6.196;2024-01-11T13:26:18;35.13;;;19.30;;
14040;SDS011;7095;51.388;6.196;2024-01-11T13:28:48;31.97;;;18.17;;
14040;SDS011;7095;51.388;6.196;2024-01-11T13:31:19;34.10;;;19.40;;
14040;SDS011;7095;51.388;6.196;2024-01-11T13:33:49;32.67;;;17.77;;
14040;SDS011;7095;51.388;6.196;2024-01-11T13:36:22;36.83;;;19.33;;
14040;SDS011;7095;51.388;6.196;2024-01-11T13:38:53;38.13;;;20.67;;
14040;SDS011;7095;51.388;6.196;2024-01-11T13:41:22;33.23;;;19.50;;
14040;SDS011;7095;51.388;6.196;2024-01-11T13:43:51;33.53;;;19.60;;
14040;SDS011;7095;51.388;6.196;2024-01-11T13:46:22;36.57;;;20.50;;
14040;SDS011;7095;51.388;6.196;2024-01-11T13:48:51;35.70;;;19.00;;
14040;SDS011;7095;51.388;6.196;2024-01-11T13:51:22;33.63;;;19.77;;
14040;SDS011;7095;51.388;6.196;2024-01-11T13:53:52;31.60;;;17.97;;
14040;SDS011;7095;51.388;6.196;2024-01-11T13:56:21;37.90;;;18.23;;
14040;SDS011;7095;51.388;6.196;2024-01-11T13:58:52;31.90;;;18.07;;
14040;SDS011;7095;51.388;6.196;2024-01-11T14:01:22;30.63;;;18.37;;
14040;SDS011;7095;51.388;6.196;2024-01-11T14:03:50;34.27;;;19.53;;
14040;SDS011;7095;51.388;6.196;2024-01-11T14:06:19;29.47;;;17.63;;
14040;SDS011;7095;51.388;6.196;2024-01-11T14:08:50;34.70;;;19.23;;
14040;SDS011;7095;51.388;6.196;2024-01-11T14:11:18;33.97;;;18.67;;
14040;SDS011;7095;51.388;6.196;2024-01-11T14:13:47;30.80;;;19.10;;
14040;SDS011;7095;51.388;6.196;2024-01-11T14:16:16;31.03;;;18.20;;
14040;SDS011;7095;51.388;6.196;2024-01-11T14:18:45;30.70;;;18.70;;
14040;SDS011;7095;51.388;6.196;2024-01-11T14:21:14;29.80;;;19.00;;
14040;SDS011;7095;51.388;6.196;2024-01-11T14:23:42;29.33;;;18.30;;
14040;SDS011;7095;51.388;6.196;2024-01-11T14:26:13;32.03;;;17.57;;
14040;SDS011;7095;51.388;6.196;2024-01-11T14:28:41;31.27;;;18.67;;
14040;SDS011;7095;51.388;6.196;2024-01-11T14:31:10;36.37;;;18.27;;
14040;SDS011;7095;51.388;6.196;2024-01-11T14:33:38;31.30;;;19.30;;
14040;SDS011;7095;51.388;6.196;2024-01-11T14:36:07;30.83;;;20.10;;
14040;SDS011;7095;51.388;6.196;2024-01-11T14:38:36;30.57;;;19.40;;
14040;SDS011;7095;51.388;6.196;2024-01-11T14:41:05;33.73;;;21.07;;
14040;SDS011;7095;51.388;6.196;2024-01-11T14:43:35;38.00;;;21.20;;
14040;SDS011;7095;51.388;6.196;2024-01-11T14:46:04;40.43;;;21.63;;
14040;SDS011;7095;51.388;6.196;2024-01-11T14:48:32;36.47;;;20.80;;